Time;durP1;ratioP1;P1;durP2;ratioP2;P2;SDS_P1;SDS_P2;PMS_P1;PMS_P2;Temp;Humidity;BMP_temperature;BMP_pressure;BME280_temperature;BME280_humidity;BME280_pressure;Samples;Min_cycle;Max_cycle;Signal;HPM_P1;HPM_P2
2021/06/19 00:00:15;;;;;;;7.13;6.53;;;24.40;99.30;;;;;;6165563;23;20457;-77
2021/06/19 00:02:43;;;;;;;7.85;6.90;;;24.30;99.30;;;;;;6164735;23;20428;-77
2021/06/19 00:05:13;;;;;;;6.80;6.20;;;24.40;99.40;;;;;;6165566;23;20165;-77
2021/06/19 00:07:43;;;;;;;7.37;6.77;;;24.40;99.40;;;;;;6154178;23;20424;-77
2021/06/19 00:10:13;;;;;;;7.17;6.57;;;24.30;99.30;;;;;;6154466;23;20409;-76
2021/06/19 00:12:42;;;;;;;9.27;6.90;;;24.30;99.30;;;;;;6154159;23;20405;-76
2021/06/19 00:15:13;;;;;;;8.10;6.30;;;24.30;99.30;;;;;;6154124;23;20827;-77
2021/06/19 00:17:42;;;;;;;7.37;6.67;;;24.20;99.30;;;;;;6154386;23;20800;-77
2021/06/19 00:20:13;;;;;;;7.90;7.07;;;24.20;99.30;;;;;;6153650;23;20471;-76
2021/06/19 00:22:44;;;;;;;7.90;7.10;;;24.20;99.40;;;;;;6154187;23;20500;-77
2021/06/19 00:25:15;;;;;;;8.00;7.20;;;24.10;99.40;;;;;;6154064;23;20459;-77
2021/06/19 00:27:45;;;;;;;9.27;8.47;;;24.10;99.50;;;;;;6165441;23;20381;-77
2021/06/19 00:30:15;;;;;;;9.00;8.10;;;24.00;99.40;;;;;;6154084;23;20416;-77
2021/06/19 00:32:45;;;;;;;8.57;7.83;;;24.00;99.50;;;;;;6154337;23;20886;-76
2021/06/19 00:35:14;;;;;;;8.90;8.10;;;24.00;99.60;;;;;;6165744;23;20408;-76
2021/06/19 00:37:44;;;;;;;10.73;8.33;;;23.90;99.60;;;;;;6165394;23;20439;-77
2021/06/19 00:40:14;;;;;;;8.90;8.00;;;23.90;99.70;;;;;;6153685;23;20515;-76
2021/06/19 00:42:51;;;;;;;9.53;8.60;;;23.90;99.70;;;;;;6155878;23;20409;-77
2021/06/19 00:45:19;;;;;;;9.70;8.80;;;23.90;99.80;;;;;;6165803;23;20392;-76
2021/06/19 00:47:47;;;;;;;8.73;8.03;;;23.90;99.80;;;;;;6153903;23;20428;-76
2021/06/19 00:50:16;;;;;;;10.03;9.03;;;23.80;99.80;;;;;;6154096;23;20499;-77
2021/06/19 00:52:47;;;;;;;9.00;8.40;;;23.80;99.80;;;;;;6154267;23;20460;-76
2021/06/19 00:55:15;;;;;;;12.77;9.40;;;23.80;99.90;;;;;;6153755;23;20519;-76
2021/06/19 00:57:45;;;;;;;9.80;9.00;;;23.70;99.90;;;;;;6153831;23;20416;-77
2021/06/19 01:00:15;;;;;;;9.57;8.80;;;23.70;99.90;;;;;;6153841;23;20531;-77
2021/06/19 01:02:44;;;;;;;10.47;9.57;;;23.70;99.90;;;;;;6154578;23;20416;-76
2021/06/19 01:05:13;;;;;;;10.50;9.40;;;23.70;99.90;;;;;;6153739;23;20445;-76
2021/06/19 01:07:41;;;;;;;10.83;9.80;;;23.70;99.90;;;;;;6153968;23;20784;-76
2021/06/19 01:10:13;;;;;;;10.93;10.00;;;23.60;99.90;;;;;;6155976;23;20420;-77
2021/06/19 01:12:43;;;;;;;10.83;9.80;;;23.60;99.90;;;;;;6157520;23;20411;-76
2021/06/19 01:15:13;;;;;;;11.83;10.27;;;23.60;99.90;;;;;;6155574;23;20427;-77
2021/06/19 01:17:41;;;;;;;11.20;10.20;;;23.60;99.90;;;;;;6155474;23;20455;-76
2021/06/19 01:20:11;;;;;;;10.00;9.20;;;23.60;99.90;;;;;;6155491;23;20839;-76
2021/06/19 01:22:43;;;;;;;10.90;9.90;;;23.50;99.90;;;;;;6155606;23;20492;-77
2021/06/19 01:25:17;;;;;;;10.10;9.30;;;23.50;99.90;;;;;;6155513;23;20417;-76
2021/06/19 01:27:48;;;;;;;10.90;9.90;;;23.50;99.90;;;;;;6156779;23;20431;-76
2021/06/19 01:30:17;;;;;;;10.60;9.73;;;23.50;99.90;;;;;;6155546;23;20420;-76
2021/06/19 01:32:47;;;;;;;11.00;10.07;;;23.40;99.90;;;;;;6166836;23;20911;-76
2021/06/19 01:35:16;;;;;;;11.00;10.00;;;23.40;99.90;;;;;;6156962;23;20743;-77
2021/06/19 01:37:45;;;;;;;11.57;10.63;;;23.40;99.90;;;;;;6156438;23;20419;-76
2021/06/19 01:40:17;;;;;;;11.10;10.00;;;23.40;99.90;;;;;;6166749;23;20475;-77
2021/06/19 01:42:49;;;;;;;11.57;10.47;;;23.30;99.90;;;;;;6155414;23;20849;-76
2021/06/19 01:45:19;;;;;;;11.20;10.30;;;23.30;99.90;;;;;;6154636;23;20425;-77
2021/06/19 01:47:48;;;;;;;13.53;10.57;;;23.40;99.90;;;;;;6155248;23;20247;-77
2021/06/19 01:50:19;;;;;;;11.43;10.50;;;23.30;99.90;;;;;;6155148;23;20458;-76
2021/06/19 01:52:48;;;;;;;11.80;10.83;;;23.30;99.90;;;;;;6155345;23;20424;-77
2021/06/19 01:55:18;;;;;;;12.63;11.33;;;23.30;99.90;;;;;;6156704;23;20523;-76
2021/06/19 01:57:47;;;;;;;11.00;10.00;;;23.30;99.90;;;;;;6155235;23;20468;-76
2021/06/19 02:00:18;;;;;;;11.53;10.60;;;23.20;99.90;;;;;;6166486;23;20526;-76
2021/06/19 02:02:47;;;;;;;12.03;11.03;;;23.20;99.90;;;;;;6155777;23;20413;-76
2021/06/19 02:05:16;;;;;;;12.60;11.40;;;23.20;99.90;;;;;;6166697;23;20463;-76
2021/06/19 02:07:47;;;;;;;11.93;10.83;;;23.20;99.90;;;;;;6166525;23;20476;-76
2021/06/19 02:10:18;;;;;;;11.83;10.87;;;23.20;99.90;;;;;;6154932;23;20470;-76
2021/06/19 02:12:47;;;;;;;12.87;11.87;;;23.10;99.90;;;;;;6155183;23;20432;-76
2021/06/19 02:15:16;;;;;;;11.70;10.80;;;23.10;99.90;;;;;;6155098;23;20531;-77
2021/06/19 02:17:45;;;;;;;12.90;11.90;;;23.10;99.90;;;;;;6156833;23;20435;-76
2021/06/19 02:20:15;;;;;;;12.30;11.30;;;23.10;99.90;;;;;;6154437;23;20507;-76
2021/06/19 02:22:44;;;;;;;12.93;11.83;;;23.10;99.90;;;;;;6155742;23;20463;-77
2021/06/19 02:25:14;;;;;;;12.90;11.70;;;23.10;99.90;;;;;;6153711;23;20463;-77
2021/06/19 02:27:52;;;;;;;13.17;12.13;;;23.10;99.90;;;;;;6156432;23;20211;-76
2021/06/19 02:30:24;;;;;;;13.10;12.10;;;23.10;99.90;;;;;;6166718;23;20749;-77
2021/06/19 02:32:53;;;;;;;13.13;12.03;;;23.10;99.90;;;;;;6154983;23;20867;-77
2021/06/19 02:35:23;;;;;;;12.20;11.20;;;23.00;99.90;;;;;;6155417;23;20431;-76
2021/06/19 02:37:52;;;;;;;13.30;12.30;;;23.00;99.90;;;;;;6154000;23;20793;-76
2021/06/19 02:40:20;;;;;;;13.70;12.43;;;23.00;99.90;;;;;;6155472;23;20515;-76
2021/06/19 02:42:50;;;;;;;16.10;13.30;;;23.00;99.90;;;;;;6154938;23;20450;-76
2021/06/19 02:45:18;;;;;;;15.10;13.83;;;22.90;99.90;;;;;;6154945;23;20420;-76
2021/06/19 02:47:49;;;;;;;16.07;14.80;;;22.90;99.90;;;;;;6166131;23;20449;-76
2021/06/19 02:50:21;;;;;;;15.07;13.87;;;22.80;99.90;;;;;;6155062;23;20407;-77
2021/06/19 02:52:49;;;;;;;15.37;13.80;;;22.80;99.90;;;;;;6156611;23;20449;-77
2021/06/19 02:55:18;;;;;;;17.43;15.87;;;22.80;99.90;;;;;;6156855;23;20486;-77
2021/06/19 02:57:47;;;;;;;16.83;15.43;;;22.70;99.90;;;;;;6154503;23;20951;-76
2021/06/19 03:00:19;;;;;;;18.20;16.77;;;22.70;99.90;;;;;;6154609;23;20438;-76
2021/06/19 03:02:49;;;;;;;17.93;16.43;;;22.70;99.90;;;;;;6156601;23;20478;-77
2021/06/19 03:05:19;;;;;;;18.63;16.93;;;22.70;99.90;;;;;;6154682;23;20448;-77
2021/06/19 03:07:47;;;;;;;19.53;17.70;;;22.70;99.90;;;;;;6154990;23;20441;-76
2021/06/19 03:10:17;;;;;;;21.30;19.30;;;22.70;99.90;;;;;;6154575;23;20502;-77
2021/06/19 03:12:47;;;;;;;20.67;18.90;;;22.70;99.90;;;;;;6154721;23;20964;-76
2021/06/19 03:15:16;;;;;;;22.73;20.67;;;22.60;99.90;;;;;;6154282;23;20805;-76
2021/06/19 03:17:45;;;;;;;23.13;21.23;;;22.60;99.90;;;;;;6153415;23;20464;-76
2021/06/19 03:20:15;;;;;;;22.33;20.50;;;22.70;99.90;;;;;;6154659;23;20204;-76
2021/06/19 03:22:47;;;;;;;23.10;21.20;;;22.70;99.90;;;;;;6154525;23;20949;-77
2021/06/19 03:25:17;;;;;;;24.07;21.97;;;22.60;99.90;;;;;;6156343;23;20438;-77
2021/06/19 03:27:46;;;;;;;23.43;21.63;;;22.60;99.90;;;;;;6154378;23;20451;-77
2021/06/19 03:30:18;;;;;;;25.23;23.23;;;22.60;99.90;;;;;;6155212;23;20412;-76
2021/06/19 03:32:47;;;;;;;24.33;22.40;;;22.60;99.90;;;;;;6166115;23;20160;-76
2021/06/19 03:35:16;;;;;;;25.30;23.33;;;22.60;99.90;;;;;;6154289;23;20473;-76
2021/06/19 03:37:45;;;;;;;26.90;24.80;;;22.60;99.90;;;;;;6156007;23;20463;-77
2021/06/19 03:40:16;;;;;;;28.77;26.20;;;22.60;99.90;;;;;;6154595;23;20439;-77
2021/06/19 03:42:46;;;;;;;31.00;28.20;;;22.60;99.90;;;;;;6154342;23;20823;-77
2021/06/19 03:45:15;;;;;;;30.97;28.40;;;22.50;99.90;;;;;;6154269;23;20447;-76
2021/06/19 03:47:45;;;;;;;33.63;30.77;;;22.50;99.90;;;;;;6154295;23;20520;-77
2021/06/19 03:50:15;;;;;;;32.50;29.93;;;22.50;99.90;;;;;;6166243;23;20447;-76
2021/06/19 03:52:49;;;;;;;33.33;30.63;;;22.50;99.90;;;;;;6154386;23;20423;-77
2021/06/19 03:55:17;;;;;;;33.87;31.23;;;22.50;99.90;;;;;;6154018;23;20825;-78
2021/06/19 03:57:45;;;;;;;35.40;32.20;;;22.50;99.90;;;;;;6154419;23;20442;-77
2021/06/19 04:00:18;;;;;;;36.37;33.37;;;22.50;99.90;;;;;;6154045;23;20946;-77
2021/06/19 04:02:49;;;;;;;37.43;34.33;;;22.50;99.90;;;;;;6153759;23;20436;-76
2021/06/19 04:05:18;;;;;;;36.00;32.93;;;22.50;99.90;;;;;;6165628;23;20397;-77
2021/06/19 04:07:47;;;;;;;37.93;34.70;;;22.50;99.90;;;;;;6154025;23;20466;-76
2021/06/19 04:10:16;;;;;;;38.77;35.57;;;22.50;99.90;;;;;;6165801;23;20405;-77
2021/06/19 04:12:46;;;;;;;38.33;35.17;;;22.50;99.90;;;;;;6166129;23;20479;-77
2021/06/19 04:15:15;;;;;;;37.67;34.33;;;22.50;99.90;;;;;;6153853;23;20936;-78
2021/06/19 04:17:44;;;;;;;37.50;34.20;;;22.50;99.90;;;;;;6153772;23;20539;-76
2021/06/19 04:20:15;;;;;;;38.00;34.80;;;22.60;99.90;;;;;;6154199;23;20423;-77
2021/06/19 04:22:44;;;;;;;37.50;34.50;;;22.60;99.90;;;;;;6154027;23;20759;-77
2021/06/19 04:25:14;;;;;;;35.80;32.47;;;22.60;99.90;;;;;;6154086;23;20455;-77
2021/06/19 04:27:45;;;;;;;32.10;29.33;;;22.60;99.90;;;;;;6154659;23;20954;-77
2021/06/19 04:30:15;;;;;;;30.07;27.60;;;22.60;99.90;;;;;;6154379;23;20443;-77
2021/06/19 04:32:45;;;;;;;31.00;28.17;;;22.70;99.90;;;;;;6154389;23;20416;-77
2021/06/19 04:35:15;;;;;;;28.60;26.13;;;22.70;99.90;;;;;;6156003;23;20464;-76
2021/06/19 04:37:44;;;;;;;25.57;23.37;;;22.70;99.90;;;;;;6154630;23;20433;-76
2021/06/19 04:40:20;;;;;;;26.90;24.70;;;22.70;99.90;;;;;;6154128;23;20430;-76
2021/06/19 04:42:56;;;;;;;26.70;24.30;;;22.80;99.90;;;;;;6154155;23;20954;-77
2021/06/19 04:45:26;;;;;;;26.17;23.97;;;22.80;99.90;;;;;;6156324;23;20451;-77
2021/06/19 04:47:59;;;;;;;25.90;23.80;;;22.80;99.90;;;;;;6156000;23;20445;-77
2021/06/19 04:50:30;;;;;;;27.17;24.93;;;22.90;99.90;;;;;;6156196;23;20423;-76
2021/06/19 04:52:58;;;;;;;25.87;23.63;;;22.90;99.90;;;;;;6156030;23;20418;-76
2021/06/19 04:55:27;;;;;;;24.87;22.43;;;23.00;99.90;;;;;;6157518;23;20428;-77
2021/06/19 04:57:58;;;;;;;26.20;24.07;;;23.00;99.90;;;;;;6155881;23;20472;-77
2021/06/19 05:00:28;;;;;;;23.67;21.50;;;23.10;99.90;;;;;;6167189;23;20424;-76
2021/06/19 05:02:56;;;;;;;23.90;21.90;;;23.10;99.90;;;;;;6157148;23;20896;-77
2021/06/19 05:05:27;;;;;;;21.37;19.57;;;23.10;99.90;;;;;;6167231;23;20403;-76
2021/06/19 05:07:57;;;;;;;19.70;17.83;;;23.20;99.90;;;;;;6155675;23;20454;-77
2021/06/19 05:10:26;;;;;;;16.90;15.40;;;23.20;99.90;;;;;;6157614;23;20435;-77
2021/06/19 05:12:54;;;;;;;16.10;14.50;;;23.30;99.90;;;;;;6155747;23;20415;-77
2021/06/19 05:15:25;;;;;;;15.10;13.90;;;23.30;99.90;;;;;;6155706;23;20423;-77
2021/06/19 05:17:54;;;;;;;13.85;12.65;;;23.40;99.90;;;;;;6154327;23;20425;-76
2021/06/19 05:20:22;;;;;;;12.97;11.87;;;23.50;99.90;;;;;;6166998;23;20247;-76
2021/06/19 05:22:51;;;;;;;14.07;12.97;;;23.60;99.90;;;;;;6167051;23;20516;-77
2021/06/19 05:25:20;;;;;;;12.20;11.30;;;23.60;99.90;;;;;;6167066;23;20768;-77
2021/06/19 05:27:49;;;;;;;12.50;11.43;;;23.70;99.90;;;;;;6155653;23;20447;-77
2021/06/19 05:30:18;;;;;;;12.43;11.33;;;23.80;99.90;;;;;;6155579;23;20417;-77
2021/06/19 05:32:47;;;;;;;12.83;11.80;;;23.90;99.90;;;;;;6155594;23;20892;-77
2021/06/19 05:35:15;;;;;;;10.70;9.70;;;24.00;99.90;;;;;;6156630;23;20430;-77
2021/06/19 05:37:43;;;;;;;12.73;11.50;;;24.20;99.90;;;;;;6156122;23;20459;-77
2021/06/19 05:40:12;;;;;;;10.80;9.97;;;24.30;99.90;;;;;;6156235;23;20421;-77
2021/06/19 05:42:44;;;;;;;11.33;10.40;;;24.50;99.90;;;;;;6157455;23;20441;-77
2021/06/19 05:45:16;;;;;;;9.63;8.73;;;24.70;99.90;;;;;;6157836;23;20412;-78
2021/06/19 05:47:45;;;;;;;10.13;9.23;;;25.00;99.90;;;;;;6156736;23;20776;-77
2021/06/19 05:50:13;;;;;;;10.30;8.63;;;25.20;99.90;;;;;;6155863;23;20417;-77
2021/06/19 05:52:42;;;;;;;10.00;9.03;;;25.40;99.90;;;;;;6156286;23;20417;-77
2021/06/19 05:55:15;;;;;;;8.20;7.40;;;25.70;99.90;;;;;;6155960;23;20436;-78
2021/06/19 05:57:45;;;;;;;7.77;7.17;;;25.90;99.90;;;;;;6156506;23;20432;-77
2021/06/19 06:00:14;;;;;;;8.17;6.80;;;26.10;99.90;;;;;;6158298;23;20457;-78
2021/06/19 06:02:44;;;;;;;7.60;6.90;;;26.30;99.90;;;;;;6157480;23;20444;-77
2021/06/19 06:05:13;;;;;;;7.70;7.00;;;26.50;99.90;;;;;;6158060;23;20417;-77
2021/06/19 06:07:42;;;;;;;7.33;6.77;;;26.70;99.90;;;;;;6158830;23;20479;-77
2021/06/19 06:10:11;;;;;;;6.67;6.17;;;26.80;99.90;;;;;;6161321;23;20688;-78
2021/06/19 06:12:40;;;;;;;7.23;6.53;;;27.00;99.90;;;;;;6160512;23;20405;-78
2021/06/19 06:15:10;;;;;;;6.83;6.23;;;27.10;99.90;;;;;;6158534;23;20790;-78
2021/06/19 06:17:39;;;;;;;7.13;5.40;;;27.20;99.90;;;;;;6159961;23;20931;-77
2021/06/19 06:20:08;;;;;;;6.33;5.93;;;27.30;99.90;;;;;;6159557;23;20451;-78
2021/06/19 06:22:36;;;;;;;5.87;5.30;;;27.50;99.90;;;;;;6160333;23;20532;-78
2021/06/19 06:25:06;;;;;;;5.97;5.40;;;27.60;99.90;;;;;;6161884;23;20489;-77
2021/06/19 06:27:34;;;;;;;5.10;4.60;;;27.60;99.80;;;;;;6159548;23;20429;-78
2021/06/19 06:30:02;;;;;;;5.27;4.77;;;27.70;99.60;;;;;;6160671;23;20440;-77
2021/06/19 06:32:33;;;;;;;6.10;5.50;;;27.80;99.60;;;;;;6158540;23;20417;-78
2021/06/19 06:35:02;;;;;;;5.67;5.17;;;27.90;99.40;;;;;;6160264;23;20437;-78
2021/06/19 06:37:30;;;;;;;6.97;5.03;;;28.10;99.10;;;;;;6161779;23;20452;-77
2021/06/19 06:39:59;;;;;;;6.80;5.10;;;28.30;98.90;;;;;;6163629;23;20412;-78
2021/06/19 06:42:27;;;;;;;5.40;4.90;;;28.40;98.50;;;;;;6161661;23;20413;-78
2021/06/19 06:44:55;;;;;;;5.27;4.80;;;28.50;98.20;;;;;;6160874;23;20452;-77
2021/06/19 06:47:24;;;;;;;6.90;5.10;;;28.60;98.00;;;;;;6161244;23;20591;-78
2021/06/19 06:49:54;;;;;;;6.60;5.20;;;28.70;97.80;;;;;;6160880;23;20727;-77
2021/06/19 06:52:22;;;;;;;6.10;5.50;;;28.70;97.60;;;;;;6161473;23;20412;-78
2021/06/19 06:54:55;;;;;;;7.10;5.27;;;28.90;96.00;;;;;;6162260;23;20173;-79
2021/06/19 06:57:23;;;;;;;5.70;5.20;;;29.00;96.10;;;;;;6161188;23;20448;-78
2021/06/19 06:59:51;;;;;;;5.43;4.93;;;29.00;96.40;;;;;;6160481;23;20460;-78
2021/06/19 07:02:19;;;;;;;4.60;4.20;;;29.10;96.10;;;;;;6160898;23;20489;-78
2021/06/19 07:04:49;;;;;;;5.40;4.90;;;29.10;95.90;;;;;;6171866;23;20405;-78
2021/06/19 07:07:19;;;;;;;6.37;5.77;;;29.10;95.80;;;;;;6154189;23;20848;-77
2021/06/19 07:09:47;;;;;;;5.10;4.70;;;29.10;95.30;;;;;;6153904;23;20931;-77
2021/06/19 07:12:15;;;;;;;5.23;4.73;;;29.10;95.30;;;;;;6165594;23;20448;-77
2021/06/19 07:14:44;;;;;;;5.13;4.70;;;29.10;95.20;;;;;;6156488;23;20433;-77
2021/06/19 07:17:15;;;;;;;6.40;4.60;;;29.00;95.10;;;;;;6157727;23;20719;-78
2021/06/19 07:19:43;;;;;;;5.03;4.70;;;28.90;95.00;;;;;;6157321;23;20456;-77
2021/06/19 07:22:11;;;;;;;4.77;4.47;;;28.80;95.10;;;;;;6154067;23;20421;-77
2021/06/19 07:24:42;;;;;;;5.10;4.70;;;28.80;95.10;;;;;;6157854;23;20437;-78
2021/06/19 07:27:10;;;;;;;5.33;4.80;;;28.90;95.00;;;;;;6164739;23;20400;-78
2021/06/19 07:29:38;;;;;;;5.13;4.73;;;29.00;94.80;;;;;;6162257;23;20468;-78
2021/06/19 07:32:07;;;;;;;5.53;5.07;;;29.00;94.60;;;;;;6171063;23;20401;-77
2021/06/19 07:34:36;;;;;;;5.70;4.73;;;28.90;94.80;;;;;;6156860;23;20417;-77
2021/06/19 07:37:04;;;;;;;5.77;4.93;;;28.70;94.50;;;;;;6155866;23;20427;-77
2021/06/19 07:39:33;;;;;;;4.67;4.27;;;28.70;94.40;;;;;;6170293;23;20413;-77
2021/06/19 07:42:02;;;;;;;4.63;4.23;;;28.60;94.50;;;;;;6157010;23;20893;-78
2021/06/19 07:44:31;;;;;;;5.23;4.83;;;28.60;94.50;;;;;;6155740;23;20487;-78
2021/06/19 07:47:00;;;;;;;4.50;4.13;;;28.60;94.60;;;;;;6155508;23;20897;-77
2021/06/19 07:49:28;;;;;;;3.93;3.73;;;28.60;94.40;;;;;;6154001;23;20441;-77
2021/06/19 07:51:57;;;;;;;5.17;4.77;;;28.50;94.30;;;;;;6154394;23;20417;-77
2021/06/19 07:54:25;;;;;;;4.93;4.53;;;28.50;94.20;;;;;;6153906;23;20896;-77
2021/06/19 07:56:54;;;;;;;5.27;4.47;;;28.60;94.20;;;;;;6149699;23;139403;-77
2021/06/19 07:59:26;;;;;;;4.40;4.00;;;28.70;94.10;;;;;;6155329;23;21045;-77
2021/06/19 08:01:55;;;;;;;4.40;4.10;;;28.90;93.00;;;;;;6157282;23;20177;-77
2021/06/19 08:04:23;;;;;;;4.50;4.10;;;29.00;92.90;;;;;;6155725;23;20464;-77
2021/06/19 08:06:51;;;;;;;4.50;4.10;;;29.00;92.90;;;;;;6154397;23;20471;-77
2021/06/19 08:09:19;;;;;;;4.33;3.93;;;29.00;92.90;;;;;;6158669;23;20444;-78
2021/06/19 08:11:48;;;;;;;4.23;3.93;;;28.90;92.80;;;;;;6163229;23;20413;-78
2021/06/19 08:14:54;;;;;;;3.87;3.57;;;28.70;92.70;;;;;;6156708;23;20467;-77
2021/06/19 08:21:08;;;;;;;3.77;3.57;;;28.30;92.60;;;;;;6161684;23;20436;-78
2021/06/19 08:23:36;;;;;;;4.40;3.80;;;28.10;92.80;;;;;;6162573;23;20441;-78
2021/06/19 08:26:04;;;;;;;3.80;3.50;;;27.90;92.80;;;;;;6161215;23;20417;-77
2021/06/19 08:28:34;;;;;;;5.17;3.80;;;27.90;92.90;;;;;;6172106;23;20420;-77
2021/06/19 08:31:03;;;;;;;4.03;3.73;;;27.90;93.00;;;;;;6160477;23;20501;-78
2021/06/19 08:33:32;;;;;;;4.93;4.63;;;27.90;92.90;;;;;;6172186;23;20397;-77
2021/06/19 08:36:01;;;;;;;4.03;3.80;;;28.00;92.90;;;;;;6172102;23;20991;-77
2021/06/19 08:38:30;;;;;;;4.03;3.73;;;28.10;92.90;;;;;;6158233;23;20445;-75
2021/06/19 08:41:00;;;;;;;4.00;3.60;;;28.20;92.80;;;;;;6168032;23;20403;-78
2021/06/19 08:43:29;;;;;;;4.13;3.83;;;28.20;92.70;;;;;;6156589;23;20423;-76
2021/06/19 08:45:58;;;;;;;4.53;3.47;;;28.10;92.40;;;;;;6168815;23;20428;-75
2021/06/19 08:48:26;;;;;;;4.23;3.93;;;28.10;92.40;;;;;;6167312;23;20743;-75
2021/06/19 08:50:54;;;;;;;5.00;4.50;;;28.10;92.40;;;;;;6159007;23;20462;-78
2021/06/19 08:53:23;;;;;;;5.43;4.93;;;28.00;92.10;;;;;;6172512;23;20166;-78
2021/06/19 08:56:13;;;;;;;5.40;4.63;;;28.10;92.10;;;;;;6171818;23;20413;-78
2021/06/19 08:58:42;;;;;;;5.97;4.20;;;28.20;92.20;;;;;;6159707;23;20436;-78
2021/06/19 09:01:10;;;;;;;11.93;5.30;;;28.30;92.10;;;;;;6160504;23;20416;-78
2021/06/19 09:03:39;;;;;;;5.50;4.30;;;28.40;92.10;;;;;;6158360;23;20520;-77
2021/06/19 09:06:20;;;;;;;4.10;3.80;;;28.50;92.20;;;;;;6157128;23;20752;-78
2021/06/19 09:09:03;;;;;;;4.13;3.83;;;28.70;92.10;;;;;;6157867;23;20436;-78
2021/06/19 09:11:35;;;;;;;4.23;3.83;;;28.80;91.90;;;;;;6158323;23;20409;-78
2021/06/19 09:14:05;;;;;;;4.07;3.87;;;28.90;91.70;;;;;;6159662;23;20444;-78
2021/06/19 09:16:34;;;;;;;4.10;3.80;;;29.00;91.50;;;;;;6159688;23;20409;-78
2021/06/19 09:19:03;;;;;;;4.13;3.83;;;29.10;91.30;;;;;;6159840;23;20468;-77
2021/06/19 09:21:35;;;;;;;4.70;3.60;;;29.00;91.10;;;;;;6169221;23;20476;-78
2021/06/19 09:24:03;;;;;;;3.97;3.67;;;29.10;91.10;;;;;;6158392;23;20441;-78
2021/06/19 09:26:33;;;;;;;4.67;4.27;;;29.10;90.90;;;;;;6168239;23;20397;-77
2021/06/19 09:29:09;;;;;;;3.87;3.57;;;29.20;90.80;;;;;;6156045;23;20441;-77
2021/06/19 09:31:44;;;;;;;4.77;4.13;;;29.20;90.50;;;;;;6168063;23;20409;-78
2021/06/19 09:34:15;;;;;;;4.97;4.57;;;29.20;90.40;;;;;;6156314;23;20408;-78
2021/06/19 09:36:49;;;;;;;4.77;4.13;;;29.30;90.30;;;;;;6158167;23;20768;-78
2021/06/19 09:39:20;;;;;;;4.10;3.90;;;29.40;90.10;;;;;;6157254;23;20436;-77
2021/06/19 09:41:52;;;;;;;4.50;4.10;;;29.40;89.70;;;;;;6155521;23;20413;-75
2021/06/19 09:44:34;;;;;;;4.03;3.77;;;29.40;89.80;;;;;;6167127;23;20475;-76
2021/06/19 09:47:02;;;;;;;4.20;3.90;;;29.40;89.50;;;;;;6155628;23;20416;-77
2021/06/19 09:49:33;;;;;;;5.80;4.97;;;29.40;89.50;;;;;;6156292;23;20519;-78
2021/06/19 09:52:02;;;;;;;4.67;4.37;;;29.40;89.20;;;;;;6156007;23;20797;-77
2021/06/19 09:54:39;;;;;;;4.37;4.10;;;29.40;89.20;;;;;;6155591;23;20902;-78
2021/06/19 09:57:12;;;;;;;5.00;4.70;;;29.40;89.10;;;;;;6166903;23;20504;-77
2021/06/19 09:59:43;;;;;;;4.50;4.20;;;29.40;88.70;;;;;;6166898;23;20471;-78
2021/06/19 10:02:20;;;;;;;6.73;4.80;;;29.40;88.60;;;;;;6155415;23;20417;-77
2021/06/19 10:04:55;;;;;;;4.73;4.43;;;29.40;88.60;;;;;;6155270;23;20809;-78
2021/06/19 10:07:25;;;;;;;4.97;4.50;;;29.50;88.80;;;;;;6167331;23;20374;-78
2021/06/19 10:09:56;;;;;;;4.80;4.40;;;29.60;88.70;;;;;;6157229;23;20467;-77
2021/06/19 10:12:27;;;;;;;4.70;4.40;;;29.70;88.30;;;;;;6155361;23;20409;-77
2021/06/19 10:14:59;;;;;;;4.50;4.20;;;29.70;89.10;;;;;;6166934;23;20452;-77
2021/06/19 10:17:31;;;;;;;8.27;4.60;;;29.80;88.40;;;;;;6166587;23;20381;-78
2021/06/19 10:20:02;;;;;;;7.90;5.03;;;29.90;88.20;;;;;;6155066;23;20496;-77
2021/06/19 10:22:31;;;;;;;4.60;4.30;;;30.00;87.90;;;;;;6153978;23;20471;-78
2021/06/19 10:25:03;;;;;;;4.80;4.30;;;30.10;85.90;;;;;;6166626;23;20460;-78
2021/06/19 10:27:33;;;;;;;4.50;4.20;;;30.20;85.90;;;;;;6155414;23;20496;-78
2021/06/19 10:30:02;;;;;;;4.53;4.23;;;30.20;85.60;;;;;;6167008;23;20393;-78
2021/06/19 10:32:45;;;;;;;4.53;4.23;;;30.20;85.70;;;;;;6155323;23;20491;-77
2021/06/19 10:35:16;;;;;;;4.00;3.80;;;30.30;86.00;;;;;;6166610;23;20382;-77
2021/06/19 10:37:49;;;;;;;4.40;4.10;;;30.30;85.70;;;;;;6156463;23;20884;-78
2021/06/19 10:40:23;;;;;;;4.28;3.97;;;30.30;85.60;;;;;;6166203;23;20351;-77
2021/06/19 10:42:54;;;;;;;4.43;4.13;;;30.40;85.50;;;;;;6166622;23;20154;-78
2021/06/19 10:45:24;;;;;;;4.97;4.60;;;30.40;84.90;;;;;;6154900;23;20428;-77
2021/06/19 10:48:05;;;;;;;4.73;4.43;;;30.50;84.60;;;;;;6166623;23;20909;-78
2021/06/19 10:50:41;;;;;;;4.17;3.87;;;30.40;84.10;;;;;;6166383;23;20465;-77
2021/06/19 10:53:11;;;;;;;4.80;4.50;;;30.40;84.10;;;;;;6154826;23;20447;-77
2021/06/19 10:55:57;;;;;;;4.30;4.00;;;30.40;84.20;;;;;;6154630;23;20428;-77
2021/06/19 10:58:28;;;;;;;4.27;3.97;;;30.50;84.30;;;;;;6154772;23;20527;-77
2021/06/19 11:00:57;;;;;;;4.03;3.83;;;30.50;84.00;;;;;;6166326;23;20468;-77
2021/06/19 11:03:41;;;;;;;4.50;4.10;;;30.60;83.60;;;;;;6154852;23;20789;-76
2021/06/19 11:06:24;;;;;;;4.60;3.83;;;30.60;82.50;;;;;;6154558;23;20436;-77
2021/06/19 11:09:00;;;;;;;4.70;4.40;;;30.60;82.30;;;;;;6154559;23;20943;-77
2021/06/19 11:11:55;;;;;;;4.80;4.47;;;30.60;82.00;;;;;;6154698;23;20413;-77
2021/06/19 11:14:56;;;;;;;4.47;4.20;;;30.60;81.60;;;;;;6154686;23;20424;-77
2021/06/19 11:17:41;;;;;;;4.53;4.13;;;30.60;81.40;;;;;;6047017;23;20935;-77
2021/06/19 11:20:27;;;;;;;4.00;3.80;;;30.60;80.90;;;;;;6146776;23;20443;-77
2021/06/19 11:23:06;;;;;;;4.27;3.97;;;30.50;80.50;;;;;;6154571;23;20420;-77
2021/06/19 11:25:51;;;;;;;5.33;4.60;;;30.50;80.40;;;;;;6155615;23;20437;-77
2021/06/19 11:28:30;;;;;;;4.57;4.27;;;30.60;80.40;;;;;;6154459;23;20444;-77
2021/06/19 11:31:02;;;;;;;5.60;5.20;;;30.60;80.20;;;;;;6154532;23;20515;-76
2021/06/19 11:33:47;;;;;;;3.90;3.70;;;30.60;80.30;;;;;;6154620;23;20405;-77
2021/06/19 11:36:39;;;;;;;4.10;3.80;;;30.70;79.90;;;;;;6154123;23;20500;-77
2021/06/19 11:39:10;;;;;;;4.40;4.10;;;30.70;78.80;;;;;;6154469;23;21031;-76
2021/06/19 11:41:47;;;;;;;4.80;4.40;;;30.70;78.80;;;;;;6165680;23;20792;-77
2021/06/19 11:44:33;;;;;;;4.10;3.80;;;30.70;78.70;;;;;;6155441;23;20409;-76
2021/06/19 11:47:08;;;;;;;3.80;3.50;;;30.70;78.90;;;;;;6154388;23;20519;-76
2021/06/19 11:49:39;;;;;;;4.00;3.70;;;30.80;79.10;;;;;;6154296;23;20463;-76
2021/06/19 11:52:10;;;;;;;4.03;3.83;;;30.90;78.90;;;;;;6154329;23;20500;-76
2021/06/19 11:54:43;;;;;;;4.50;4.20;;;30.90;78.50;;;;;;6154384;23;20436;-76
2021/06/19 11:57:27;;;;;;;4.70;4.40;;;30.80;78.90;;;;;;6165686;23;20805;-76
2021/06/19 12:00:07;;;;;;;4.83;4.00;;;30.80;78.50;;;;;;6154416;23;20459;-76
2021/06/19 12:02:40;;;;;;;4.30;4.00;;;30.90;78.60;;;;;;6165752;23;20381;-76
2021/06/19 12:05:13;;;;;;;5.17;4.87;;;30.80;78.50;;;;;;6166380;23;20464;-77
2021/06/19 12:07:41;;;;;;;4.40;3.73;;;30.90;78.60;;;;;;6166638;23;20396;-76
2021/06/19 12:10:23;;;;;;;4.55;4.15;;;30.90;78.60;;;;;;6165445;23;20408;-76
2021/06/19 12:13:03;;;;;;;4.77;4.47;;;31.10;77.80;;;;;;6154369;23;20260;-76
2021/06/19 12:15:32;;;;;;;4.20;3.90;;;31.00;77.50;;;;;;6154295;23;20783;-77
2021/06/19 12:18:04;;;;;;;5.03;4.73;;;31.00;77.80;;;;;;6154235;23;20435;-76
2021/06/19 12:20:32;;;;;;;4.37;4.10;;;31.00;78.00;;;;;;6154324;23;20444;-76
2021/06/19 12:23:15;;;;;;;4.90;4.60;;;31.00;78.40;;;;;;6165395;23;20405;-76
2021/06/19 12:25:43;;;;;;;4.60;4.30;;;31.10;77.70;;;;;;6154139;23;20994;-76
2021/06/19 12:28:22;;;;;;;5.10;4.80;;;31.10;77.40;;;;;;6165485;23;20995;-76
2021/06/19 12:30:55;;;;;;;5.40;5.03;;;31.10;77.20;;;;;;6154092;23;20508;-76
2021/06/19 12:33:25;;;;;;;4.45;4.15;;;31.00;77.20;;;;;;6165268;23;20479;-76
2021/06/19 12:35:54;;;;;;;4.77;4.47;;;31.10;76.40;;;;;;6154266;23;20175;-76
2021/06/19 12:38:22;;;;;;;4.60;4.30;;;31.10;76.70;;;;;;6165998;23;20421;-76
2021/06/19 12:40:51;;;;;;;4.50;4.20;;;31.10;76.90;;;;;;6155667;23;20444;-76
2021/06/19 12:43:19;;;;;;;4.23;3.93;;;31.10;76.90;;;;;;6153695;23;20508;-77
2021/06/19 12:45:49;;;;;;;4.70;4.40;;;31.10;76.90;;;;;;6153998;23;20436;-76
2021/06/19 12:48:20;;;;;;;4.57;4.27;;;31.20;76.80;;;;;;6165416;23;20428;-76
2021/06/19 12:50:51;;;;;;;4.60;4.40;;;31.20;76.80;;;;;;6154443;23;20500;-76
2021/06/19 12:53:25;;;;;;;4.40;4.10;;;31.30;76.90;;;;;;6156020;23;20401;-76
2021/06/19 12:56:03;;;;;;;4.10;3.83;;;31.40;77.10;;;;;;6154248;23;20491;-76
2021/06/19 12:58:36;;;;;;;4.50;4.17;;;31.40;76.60;;;;;;6153780;23;20495;-76
2021/06/19 13:01:15;;;;;;;4.50;4.20;;;31.50;76.50;;;;;;6153916;23;20747;-76
2021/06/19 13:03:47;;;;;;;4.53;4.10;;;31.50;76.20;;;;;;6154077;23;20412;-76